sensor_id;sensor_type;location;lat;lon;timestamp;temperature;humidity
22305;DHT22;18742;49.194;11.020;2022-07-04T00:02:18;19.20;99.00
22305;DHT22;18742;49.194;11.020;2022-07-04T00:04:44;19.20;99.70
22305;DHT22;18742;49.194;11.020;2022-07-04T00:07:10;19.20;99.90
22305;DHT22;18742;49.194;11.020;2022-07-04T00:09:35;19.20;99.90
22305;DHT22;18742;49.194;11.020;2022-07-04T00:12:01;19.20;99.90
22305;DHT22;18742;49.194;11.020;2022-07-04T00:14:26;19.20;99.90
22305;DHT22;18742;49.194;11.020;2022-07-04T00:16:52;19.20;99.90
22305;DHT22;18742;49.194;11.020;2022-07-04T00:19:17;19.20;99.90
22305;DHT22;18742;49.194;11.020;2022-07-04T00:21:43;19.20;99.90
22305;DHT22;18742;49.194;11.020;2022-07-04T00:24:09;19.30;99.90
22305;DHT22;18742;49.194;11.020;2022-07-04T00:26:35;19.30;99.90
22305;DHT22;18742;49.194;11.020;2022-07-04T00:29:00;19.40;99.90
22305;DHT22;18742;49.194;11.020;2022-07-04T00:31:26;19.40;99.90
22305;DHT22;18742;49.194;11.020;2022-07-04T00:33:51;19.40;99.90
22305;DHT22;18742;49.194;11.020;2022-07-04T00:36:17;19.40;99.90
22305;DHT22;18742;49.194;11.020;2022-07-04T00:38:43;19.40;99.90
22305;DHT22;18742;49.194;11.020;2022-07-04T00:41:08;19.40;99.90
22305;DHT22;18742;49.194;11.020;2022-07-04T00:43:34;19.40;99.90
22305;DHT22;18742;49.194;11.020;2022-07-04T00:46:03;19.40;99.90
22305;DHT22;18742;49.194;11.020;2022-07-04T00:48:30;19.40;99.90
22305;DHT22;18742;49.194;11.020;2022-07-04T00:50:55;19.30;99.90
22305;DHT22;18742;49.194;11.020;2022-07-04T00:53:22;19.30;99.90
22305;DHT22;18742;49.194;11.020;2022-07-04T00:55:51;19.20;99.90
22305;DHT22;18742;49.194;11.020;2022-07-04T00:58:20;19.20;99.90
22305;DHT22;18742;49.194;11.020;2022-07-04T01:00:47;19.20;99.90
22305;DHT22;18742;49.194;11.020;2022-07-04T01:03:12;19.20;99.90
22305;DHT22;18742;49.194;11.020;2022-07-04T01:05:38;19.10;99.90
22305;DHT22;18742;49.194;11.020;2022-07-04T01:08:05;19.10;99.90
22305;DHT22;18742;49.194;11.020;2022-07-04T01:10:31;19.00;99.90
22305;DHT22;18742;49.194;11.020;2022-07-04T01:12:56;19.10;99.90
22305;DHT22;18742;49.194;11.020;2022-07-04T01:15:22;19.10;99.90
22305;DHT22;18742;49.194;11.020;2022-07-04T01:17:48;19.10;99.90
22305;DHT22;18742;49.194;11.020;2022-07-04T01:20:15;19.00;99.90
22305;DHT22;18742;49.194;11.020;2022-07-04T01:22:40;19.00;99.90
22305;DHT22;18742;49.194;11.020;2022-07-04T01:25:10;19.00;99.90
22305;DHT22;18742;49.194;11.020;2022-07-04T01:27:36;19.00;99.90
22305;DHT22;18742;49.194;11.020;2022-07-04T01:30:01;19.00;99.90
22305;DHT22;18742;49.194;11.020;2022-07-04T01:32:27;19.00;99.90
22305;DHT22;18742;49.194;11.020;2022-07-04T01:34:53;19.00;99.90
22305;DHT22;18742;49.194;11.020;2022-07-04T01:37:18;19.00;99.90
22305;DHT22;18742;49.194;11.020;2022-07-04T01:39:44;18.90;99.90
22305;DHT22;18742;49.194;11.020;2022-07-04T01:42:09;18.90;99.90
22305;DHT22;18742;49.194;11.020;2022-07-04T01:44:35;18.90;99.90
22305;DHT22;18742;49.194;11.020;2022-07-04T01:47:02;18.80;99.90
22305;DHT22;18742;49.194;11.020;2022-07-04T01:49:28;18.70;99.90
22305;DHT22;18742;49.194;11.020;2022-07-04T01:51:53;18.70;99.90
22305;DHT22;18742;49.194;11.020;2022-07-04T01:54:19;18.70;99.90
22305;DHT22;18742;49.194;11.020;2022-07-04T01:56:45;18.60;99.90
22305;DHT22;18742;49.194;11.020;2022-07-04T01:59:11;18.60;99.90
22305;DHT22;18742;49.194;11.020;2022-07-04T02:01:37;18.60;99.90
22305;DHT22;18742;49.194;11.020;2022-07-04T02:04:04;18.50;99.90
22305;DHT22;18742;49.194;11.020;2022-07-04T02:06:30;18.40;99.90
22305;DHT22;18742;49.194;11.020;2022-07-04T02:08:56;18.40;99.90
22305;DHT22;18742;49.194;11.020;2022-07-04T02:11:40;18.50;99.90
22305;DHT22;18742;49.194;11.020;2022-07-04T02:14:25;18.50;99.90
22305;DHT22;18742;49.194;11.020;2022-07-04T02:16:50;18.40;99.90
22305;DHT22;18742;49.194;11.020;2022-07-04T02:19:16;18.50;99.90
22305;DHT22;18742;49.194;11.020;2022-07-04T02:21:42;18.40;99.90
22305;DHT22;18742;49.194;11.020;2022-07-04T02:24:08;18.40;99.90
22305;DHT22;18742;49.194;11.020;2022-07-04T02:26:33;18.50;99.90
22305;DHT22;18742;49.194;11.020;2022-07-04T02:28:59;18.50;99.90
22305;DHT22;18742;49.194;11.020;2022-07-04T02:31:25;18.50;99.90
22305;DHT22;18742;49.194;11.020;2022-07-04T02:33:51;18.50;99.90
22305;DHT22;18742;49.194;11.020;2022-07-04T02:36:16;18.40;99.90
22305;DHT22;18742;49.194;11.020;2022-07-04T02:38:42;18.40;99.90
22305;DHT22;18742;49.194;11.020;2022-07-04T02:41:08;18.40;99.90
22305;DHT22;18742;49.194;11.020;2022-07-04T02:43:33;18.40;99.90
22305;DHT22;18742;49.194;11.020;2022-07-04T02:45:59;18.40;99.90
22305;DHT22;18742;49.194;11.020;2022-07-04T02:48:24;18.30;99.90
22305;DHT22;18742;49.194;11.020;2022-07-04T02:50:50;18.30;99.90
22305;DHT22;18742;49.194;11.020;2022-07-04T02:53:16;18.30;99.90
22305;DHT22;18742;49.194;11.020;2022-07-04T02:55:41;18.30;99.90
22305;DHT22;18742;49.194;11.020;2022-07-04T02:58:07;18.30;99.90
22305;DHT22;18742;49.194;11.020;2022-07-04T03:00:32;18.30;99.90
22305;DHT22;18742;49.194;11.020;2022-07-04T03:02:58;18.30;99.90
22305;DHT22;18742;49.194;11.020;2022-07-04T03:05:23;18.30;99.90
22305;DHT22;18742;49.194;11.020;2022-07-04T03:07:49;18.20;99.90
22305;DHT22;18742;49.194;11.020;2022-07-04T03:10:14;18.30;99.90
22305;DHT22;18742;49.194;11.020;2022-07-04T03:12:40;18.20;99.90
22305;DHT22;18742;49.194;11.020;2022-07-04T03:15:06;18.30;99.90
22305;DHT22;18742;49.194;11.020;2022-07-04T03:17:32;18.30;99.90
22305;DHT22;18742;49.194;11.020;2022-07-04T03:19:57;18.30;99.90
22305;DHT22;18742;49.194;11.020;2022-07-04T03:22:23;18.30;99.90
22305;DHT22;18742;49.194;11.020;2022-07-04T03:24:49;18.20;99.90
22305;DHT22;18742;49.194;11.020;2022-07-04T03:27:14;18.30;99.90
22305;DHT22;18742;49.194;11.020;2022-07-04T03:29:40;18.20;99.90
22305;DHT22;18742;49.194;11.020;2022-07-04T03:32:06;18.20;99.90
22305;DHT22;18742;49.194;11.020;2022-07-04T03:34:32;18.20;99.90
22305;DHT22;18742;49.194;11.020;2022-07-04T03:36:57;18.20;99.90
22305;DHT22;18742;49.194;11.020;2022-07-04T03:39:23;18.20;99.90
22305;DHT22;18742;49.194;11.020;2022-07-04T03:41:49;18.20;99.90
22305;DHT22;18742;49.194;11.020;2022-07-04T03:44:14;18.20;99.90
22305;DHT22;18742;49.194;11.020;2022-07-04T03:46:40;18.10;99.90
22305;DHT22;18742;49.194;11.020;2022-07-04T03:49:06;18.10;99.90
22305;DHT22;18742;49.194;11.020;2022-07-04T03:51:31;18.10;99.90
22305;DHT22;18742;49.194;11.020;2022-07-04T03:53:57;18.10;99.90
22305;DHT22;18742;49.194;11.020;2022-07-04T03:56:23;18.10;99.90
22305;DHT22;18742;49.194;11.020;2022-07-04T03:58:48;18.10;99.90
22305;DHT22;18742;49.194;11.020;2022-07-04T04:01:15;18.10;99.90
22305;DHT22;18742;49.194;11.020;2022-07-04T04:03:42;18.10;99.90
22305;DHT22;18742;49.194;11.020;2022-07-04T04:06:26;18.10;99.90
22305;DHT22;18742;49.194;11.020;2022-07-04T04:08:52;18.20;99.90
22305;DHT22;18742;49.194;11.020;2022-07-04T04:11:17;18.10;99.90
22305;DHT22;18742;49.194;11.020;2022-07-04T04:13:43;18.20;99.90
22305;DHT22;18742;49.194;11.020;2022-07-04T04:16:09;18.20;99.90
22305;DHT22;18742;49.194;11.020;2022-07-04T04:18:34;18.20;99.90
22305;DHT22;18742;49.194;11.020;2022-07-04T04:21:00;18.20;99.90
22305;DHT22;18742;49.194;11.020;2022-07-04T04:23:25;18.10;99.90
22305;DHT22;18742;49.194;11.020;2022-07-04T04:25:51;18.20;99.90
22305;DHT22;18742;49.194;11.020;2022-07-04T04:28:17;18.20;99.90
22305;DHT22;18742;49.194;11.020;2022-07-04T04:30:43;18.10;99.90
22305;DHT22;18742;49.194;11.020;2022-07-04T04:33:08;18.20;99.90
22305;DHT22;18742;49.194;11.020;2022-07-04T04:35:34;18.20;99.90
22305;DHT22;18742;49.194;11.020;2022-07-04T04:37:59;18.20;99.90
22305;DHT22;18742;49.194;11.020;2022-07-04T04:40:25;18.20;99.90
22305;DHT22;18742;49.194;11.020;2022-07-04T04:42:50;18.20;99.90
22305;DHT22;18742;49.194;11.020;2022-07-04T04:45:16;18.20;99.90
22305;DHT22;18742;49.194;11.020;2022-07-04T04:47:41;18.30;99.90
22305;DHT22;18742;49.194;11.020;2022-07-04T04:50:09;18.30;99.90
22305;DHT22;18742;49.194;11.020;2022-07-04T04:52:37;18.30;99.90
22305;DHT22;18742;49.194;11.020;2022-07-04T04:55:03;18.40;99.90
22305;DHT22;18742;49.194;11.020;2022-07-04T04:57:29;18.40;99.90
22305;DHT22;18742;49.194;11.020;2022-07-04T04:59:55;18.50;99.90
22305;DHT22;18742;49.194;11.020;2022-07-04T05:02:20;18.50;99.90
22305;DHT22;18742;49.194;11.020;2022-07-04T05:04:46;18.60;99.90
22305;DHT22;18742;49.194;11.020;2022-07-04T05:07:11;18.60;99.90
22305;DHT22;18742;49.194;11.020;2022-07-04T05:09:37;18.70;99.90
22305;DHT22;18742;49.194;11.020;2022-07-04T05:12:03;18.80;99.90
22305;DHT22;18742;49.194;11.020;2022-07-04T05:14:28;18.80;99.90
22305;DHT22;18742;49.194;11.020;2022-07-04T05:16:54;19.00;99.90
22305;DHT22;18742;49.194;11.020;2022-07-04T05:19:20;19.10;99.90
22305;DHT22;18742;49.194;11.020;2022-07-04T05:21:45;19.10;99.90
22305;DHT22;18742;49.194;11.020;2022-07-04T05:24:11;19.10;99.90
22305;DHT22;18742;49.194;11.020;2022-07-04T05:26:37;19.20;99.90
22305;DHT22;18742;49.194;11.020;2022-07-04T05:29:02;19.30;99.90
22305;DHT22;18742;49.194;11.020;2022-07-04T05:31:28;19.30;99.90
22305;DHT22;18742;49.194;11.020;2022-07-04T05:33:54;19.40;99.90
22305;DHT22;18742;49.194;11.020;2022-07-04T05:36:21;19.40;99.90
22305;DHT22;18742;49.194;11.020;2022-07-04T05:38:46;19.40;99.90
22305;DHT22;18742;49.194;11.020;2022-07-04T05:41:12;19.50;99.90
22305;DHT22;18742;49.194;11.020;2022-07-04T05:43:37;19.50;99.90
22305;DHT22;18742;49.194;11.020;2022-07-04T05:46:03;19.60;99.90
22305;DHT22;18742;49.194;11.020;2022-07-04T05:48:29;19.70;99.90
22305;DHT22;18742;49.194;11.020;2022-07-04T05:50:55;19.70;99.90
22305;DHT22;18742;49.194;11.020;2022-07-04T05:53:20;19.70;99.90
22305;DHT22;18742;49.194;11.020;2022-07-04T05:55:46;19.70;99.90
22305;DHT22;18742;49.194;11.020;2022-07-04T05:58:11;19.80;99.90
22305;DHT22;18742;49.194;11.020;2022-07-04T06:00:37;19.90;99.90
22305;DHT22;18742;49.194;11.020;2022-07-04T06:03:05;19.90;99.90
22305;DHT22;18742;49.194;11.020;2022-07-04T06:05:31;19.90;99.90
22305;DHT22;18742;49.194;11.020;2022-07-04T06:07:57;19.90;99.90
22305;DHT22;18742;49.194;11.020;2022-07-04T06:10:23;19.80;99.90
22305;DHT22;18742;49.194;11.020;2022-07-04T06:12:48;19.90;99.90
22305;DHT22;18742;49.194;11.020;2022-07-04T06:15:14;20.00;99.90
22305;DHT22;18742;49.194;11.020;2022-07-04T06:17:41;20.10;99.90
22305;DHT22;18742;49.194;11.020;2022-07-04T06:20:07;20.20;99.90
22305;DHT22;18742;49.194;11.020;2022-07-04T06:22:46;20.30;99.90
22305;DHT22;18742;49.194;11.020;2022-07-04T06:25:14;20.50;99.90
22305;DHT22;18742;49.194;11.020;2022-07-04T06:27:41;20.70;99.90
22305;DHT22;18742;49.194;11.020;2022-07-04T06:30:07;20.90;99.90
22305;DHT22;18742;49.194;11.020;2022-07-04T06:32:43;21.00;99.90
22305;DHT22;18742;49.194;11.020;2022-07-04T06:35:09;21.10;99.90
22305;DHT22;18742;49.194;11.020;2022-07-04T06:37:53;21.20;99.90
22305;DHT22;18742;49.194;11.020;2022-07-04T06:40:19;21.20;99.90
22305;DHT22;18742;49.194;11.020;2022-07-04T06:42:44;21.20;99.90
22305;DHT22;18742;49.194;11.020;2022-07-04T06:45:10;21.10;99.90
22305;DHT22;18742;49.194;11.020;2022-07-04T06:47:36;21.00;99.90
22305;DHT22;18742;49.194;11.020;2022-07-04T06:50:02;20.90;99.90
22305;DHT22;18742;49.194;11.020;2022-07-04T06:52:27;20.80;99.90
22305;DHT22;18742;49.194;11.020;2022-07-04T06:54:53;20.60;99.90
22305;DHT22;18742;49.194;11.020;2022-07-04T06:57:18;20.70;99.90
22305;DHT22;18742;49.194;11.020;2022-07-04T06:59:44;20.70;99.90
22305;DHT22;18742;49.194;11.020;2022-07-04T07:02:09;20.80;99.90
22305;DHT22;18742;49.194;11.020;2022-07-04T07:04:35;20.90;99.90
22305;DHT22;18742;49.194;11.020;2022-07-04T07:07:00;21.10;99.90
22305;DHT22;18742;49.194;11.020;2022-07-04T07:09:26;21.30;99.90
22305;DHT22;18742;49.194;11.020;2022-07-04T07:11:51;21.30;99.90
22305;DHT22;18742;49.194;11.020;2022-07-04T07:14:17;21.50;99.90
22305;DHT22;18742;49.194;11.020;2022-07-04T07:16:43;21.70;99.90
22305;DHT22;18742;49.194;11.020;2022-07-04T07:19:08;21.70;99.90
22305;DHT22;18742;49.194;11.020;2022-07-04T07:21:34;21.80;99.90
22305;DHT22;18742;49.194;11.020;2022-07-04T07:23:59;21.90;99.90
22305;DHT22;18742;49.194;11.020;2022-07-04T07:26:26;21.90;99.90
22305;DHT22;18742;49.194;11.020;2022-07-04T07:28:51;22.10;99.90
22305;DHT22;18742;49.194;11.020;2022-07-04T07:31:17;22.30;99.90
22305;DHT22;18742;49.194;11.020;2022-07-04T07:33:42;22.50;99.90
22305;DHT22;18742;49.194;11.020;2022-07-04T07:36:08;22.60;99.50
22305;DHT22;18742;49.194;11.020;2022-07-04T07:42:23;23.00;99.10
22305;DHT22;18742;49.194;11.020;2022-07-04T07:44:49;23.00;97.30
22305;DHT22;18742;49.194;11.020;2022-07-04T07:47:14;22.90;97.30
22305;DHT22;18742;49.194;11.020;2022-07-04T07:49:41;22.90;97.20
22305;DHT22;18742;49.194;11.020;2022-07-04T07:52:07;23.10;97.50
22305;DHT22;18742;49.194;11.020;2022-07-04T07:54:33;23.10;96.90
22305;DHT22;18742;49.194;11.020;2022-07-04T07:56:58;23.20;96.40
22305;DHT22;18742;49.194;11.020;2022-07-04T07:59:24;23.30;96.10
22305;DHT22;18742;49.194;11.020;2022-07-04T08:01:49;23.50;95.60
22305;DHT22;18742;49.194;11.020;2022-07-04T08:04:15;23.60;95.50
22305;DHT22;18742;49.194;11.020;2022-07-04T08:07:00;23.60;95.20
22305;DHT22;18742;49.194;11.020;2022-07-04T08:09:26;23.70;95.00
22305;DHT22;18742;49.194;11.020;2022-07-04T08:11:51;23.80;94.40
22305;DHT22;18742;49.194;11.020;2022-07-04T08:14:17;23.80;93.90
22305;DHT22;18742;49.194;11.020;2022-07-04T08:16:43;24.00;93.80
22305;DHT22;18742;49.194;11.020;2022-07-04T08:19:08;24.00;94.20
22305;DHT22;18742;49.194;11.020;2022-07-04T08:21:34;24.20;93.50
22305;DHT22;18742;49.194;11.020;2022-07-04T08:23:59;24.10;92.90
22305;DHT22;18742;49.194;11.020;2022-07-04T08:26:25;24.20;93.70
22305;DHT22;18742;49.194;11.020;2022-07-04T08:28:51;24.20;93.00
22305;DHT22;18742;49.194;11.020;2022-07-04T08:31:18;24.30;92.70
22305;DHT22;18742;49.194;11.020;2022-07-04T08:33:44;24.20;92.80
22305;DHT22;18742;49.194;11.020;2022-07-04T08:36:10;24.40;92.20
22305;DHT22;18742;49.194;11.020;2022-07-04T08:38:35;24.30;91.50
22305;DHT22;18742;49.194;11.020;2022-07-04T08:41:03;24.30;91.60
22305;DHT22;18742;49.194;11.020;2022-07-04T08:43:30;24.40;91.30
22305;DHT22;18742;49.194;11.020;2022-07-04T08:45:59;24.60;90.90
22305;DHT22;18742;49.194;11.020;2022-07-04T08:48:25;24.80;90.50
22305;DHT22;18742;49.194;11.020;2022-07-04T08:50:56;25.00;90.20
22305;DHT22;18742;49.194;11.020;2022-07-04T08:53:28;25.10;90.30
22305;DHT22;18742;49.194;11.020;2022-07-04T08:55:55;25.30;88.80
22305;DHT22;18742;49.194;11.020;2022-07-04T08:58:40;25.60;90.10
22305;DHT22;18742;49.194;11.020;2022-07-04T09:01:10;25.70;85.10
22305;DHT22;18742;49.194;11.020;2022-07-04T09:03:44;25.70;84.40
22305;DHT22;18742;49.194;11.020;2022-07-04T09:06:11;25.60;84.90
22305;DHT22;18742;49.194;11.020;2022-07-04T09:08:38;25.70;84.10
22305;DHT22;18742;49.194;11.020;2022-07-04T09:11:05;25.70;84.60
22305;DHT22;18742;49.194;11.020;2022-07-04T09:13:31;25.90;84.60
22305;DHT22;18742;49.194;11.020;2022-07-04T09:15:57;26.10;85.10
22305;DHT22;18742;49.194;11.020;2022-07-04T09:18:32;26.30;82.90
22305;DHT22;18742;49.194;11.020;2022-07-04T09:21:08;26.30;82.80
22305;DHT22;18742;49.194;11.020;2022-07-04T09:23:39;26.60;82.00
22305;DHT22;18742;49.194;11.020;2022-07-04T09:26:17;26.70;80.10
22305;DHT22;18742;49.194;11.020;2022-07-04T09:28:51;26.90;79.60
22305;DHT22;18742;49.194;11.020;2022-07-04T09:31:23;26.70;77.60
22305;DHT22;18742;49.194;11.020;2022-07-04T09:33:54;26.70;77.60
22305;DHT22;18742;49.194;11.020;2022-07-04T09:36:25;26.50;76.50
22305;DHT22;18742;49.194;11.020;2022-07-04T09:39:11;26.60;76.90
22305;DHT22;18742;49.194;11.020;2022-07-04T09:42:00;26.40;77.50
22305;DHT22;18742;49.194;11.020;2022-07-04T09:46:59;26.20;76.80
22305;DHT22;18742;49.194;11.020;2022-07-04T09:49:25;26.30;76.90
22305;DHT22;18742;49.194;11.020;2022-07-04T09:51:52;26.30;77.00
22305;DHT22;18742;49.194;11.020;2022-07-04T09:54:25;26.40;76.80
22305;DHT22;18742;49.194;11.020;2022-07-04T09:57:00;26.40;76.20
22305;DHT22;18742;49.194;11.020;2022-07-04T09:59:27;26.30;75.20
22305;DHT22;18742;49.194;11.020;2022-07-04T10:02:09;26.40;76.10
22305;DHT22;18742;49.194;11.020;2022-07-04T10:07:06;26.50;75.60
22305;DHT22;18742;49.194;11.020;2022-07-04T10:09:32;26.20;75.40
22305;DHT22;18742;49.194;11.020;2022-07-04T10:11:58;26.00;76.20
22305;DHT22;18742;49.194;11.020;2022-07-04T10:14:23;26.30;76.40
22305;DHT22;18742;49.194;11.020;2022-07-04T10:16:49;26.20;76.00
22305;DHT22;18742;49.194;11.020;2022-07-04T10:19:15;26.20;75.40
22305;DHT22;18742;49.194;11.020;2022-07-04T10:21:41;26.40;75.40
22305;DHT22;18742;49.194;11.020;2022-07-04T10:24:07;26.40;74.60
22305;DHT22;18742;49.194;11.020;2022-07-04T10:26:33;26.90;75.20
22305;DHT22;18742;49.194;11.020;2022-07-04T10:28:59;27.00;72.00
22305;DHT22;18742;49.194;11.020;2022-07-04T10:31:27;27.00;71.60
22305;DHT22;18742;49.194;11.020;2022-07-04T10:33:55;27.10;71.90
22305;DHT22;18742;49.194;11.020;2022-07-04T10:36:24;27.30;69.70
22305;DHT22;18742;49.194;11.020;2022-07-04T10:38:56;27.80;70.90
22305;DHT22;18742;49.194;11.020;2022-07-04T10:41:23;27.60;69.80
22305;DHT22;18742;49.194;11.020;2022-07-04T10:43:53;27.70;70.70
22305;DHT22;18742;49.194;11.020;2022-07-04T10:46:27;27.80;70.50
22305;DHT22;18742;49.194;11.020;2022-07-04T10:48:57;27.90;70.60
22305;DHT22;18742;49.194;11.020;2022-07-04T10:51:43;27.80;69.80
22305;DHT22;18742;49.194;11.020;2022-07-04T10:59:26;28.00;71.20
22305;DHT22;18742;49.194;11.020;2022-07-04T11:04:47;28.10;70.10
22305;DHT22;18742;49.194;11.020;2022-07-04T11:07:54;28.20;69.90
22305;DHT22;18742;49.194;11.020;2022-07-04T11:18:04;27.80;68.40
22305;DHT22;18742;49.194;11.020;2022-07-04T11:20:32;27.80;69.50
22305;DHT22;18742;49.194;11.020;2022-07-04T11:25:31;27.70;68.50
22305;DHT22;18742;49.194;11.020;2022-07-04T11:27:57;27.80;66.80
22305;DHT22;18742;49.194;11.020;2022-07-04T11:30:22;27.80;67.80
22305;DHT22;18742;49.194;11.020;2022-07-04T11:32:48;27.60;67.50
22305;DHT22;18742;49.194;11.020;2022-07-04T11:35:14;27.20;67.00
22305;DHT22;18742;49.194;11.020;2022-07-04T11:37:44;27.30;68.00
22305;DHT22;18742;49.194;11.020;2022-07-04T11:40:10;27.30;68.30
22305;DHT22;18742;49.194;11.020;2022-07-04T11:43:04;27.40;67.40
22305;DHT22;18742;49.194;11.020;2022-07-04T11:45:49;27.40;66.60
22305;DHT22;18742;49.194;11.020;2022-07-04T11:48:22;27.70;66.90
22305;DHT22;18742;49.194;11.020;2022-07-04T11:50:47;27.90;66.50
22305;DHT22;18742;49.194;11.020;2022-07-04T11:53:13;28.00;66.90
22305;DHT22;18742;49.194;11.020;2022-07-04T11:55:38;28.00;64.90
22305;DHT22;18742;49.194;11.020;2022-07-04T11:58:04;28.20;65.90
22305;DHT22;18742;49.194;11.020;2022-07-04T12:00:30;28.00;65.30
22305;DHT22;18742;49.194;11.020;2022-07-04T12:02:59;27.70;65.20
22305;DHT22;18742;49.194;11.020;2022-07-04T12:05:25;28.10;66.50
22305;DHT22;18742;49.194;11.020;2022-07-04T12:07:50;28.60;66.20
22305;DHT22;18742;49.194;11.020;2022-07-04T12:10:22;28.90;65.60
22305;DHT22;18742;49.194;11.020;2022-07-04T12:13:05;29.20;64.60
22305;DHT22;18742;49.194;11.020;2022-07-04T12:15:41;29.40;63.50
22305;DHT22;18742;49.194;11.020;2022-07-04T12:20:43;28.80;64.80
22305;DHT22;18742;49.194;11.020;2022-07-04T12:23:09;28.90;65.00
22305;DHT22;18742;49.194;11.020;2022-07-04T12:25:37;28.90;65.10
22305;DHT22;18742;49.194;11.020;2022-07-04T12:28:09;29.00;64.50
22305;DHT22;18742;49.194;11.020;2022-07-04T12:30:37;29.00;64.40
22305;DHT22;18742;49.194;11.020;2022-07-04T12:33:05;29.30;66.00
22305;DHT22;18742;49.194;11.020;2022-07-04T12:40:35;29.40;64.00
22305;DHT22;18742;49.194;11.020;2022-07-04T12:43:01;29.60;64.30
22305;DHT22;18742;49.194;11.020;2022-07-04T12:45:41;30.10;63.30
22305;DHT22;18742;49.194;11.020;2022-07-04T12:48:32;30.00;62.70
22305;DHT22;18742;49.194;11.020;2022-07-04T12:51:13;29.90;62.10
22305;DHT22;18742;49.194;11.020;2022-07-04T12:53:41;29.80;62.50
22305;DHT22;18742;49.194;11.020;2022-07-04T12:56:08;31.90;59.00
22305;DHT22;18742;49.194;11.020;2022-07-04T12:58:34;34.30;57.00
22305;DHT22;18742;49.194;11.020;2022-07-04T13:01:00;34.90;52.40
22305;DHT22;18742;49.194;11.020;2022-07-04T13:03:25;35.20;51.60
22305;DHT22;18742;49.194;11.020;2022-07-04T13:05:51;34.60;52.40
22305;DHT22;18742;49.194;11.020;2022-07-04T13:08:17;33.70;53.40
22305;DHT22;18742;49.194;11.020;2022-07-04T13:10:42;33.40;54.50
22305;DHT22;18742;49.194;11.020;2022-07-04T13:13:08;32.70;54.50
22305;DHT22;18742;49.194;11.020;2022-07-04T13:15:34;31.80;55.40
22305;DHT22;18742;49.194;11.020;2022-07-04T13:20:26;35.10;51.20
22305;DHT22;18742;49.194;11.020;2022-07-04T13:22:52;36.40;50.10
22305;DHT22;18742;49.194;11.020;2022-07-04T13:25:18;38.00;48.50
22305;DHT22;18742;49.194;11.020;2022-07-04T13:27:44;38.10;47.10
22305;DHT22;18742;49.194;11.020;2022-07-04T13:30:10;38.50;46.50
22305;DHT22;18742;49.194;11.020;2022-07-04T13:32:36;39.90;45.30
22305;DHT22;18742;49.194;11.020;2022-07-04T13:35:03;41.20;43.80
22305;DHT22;18742;49.194;11.020;2022-07-04T13:37:32;42.10;42.30
22305;DHT22;18742;49.194;11.020;2022-07-04T13:39:57;42.30;40.60
22305;DHT22;18742;49.194;11.020;2022-07-04T13:42:23;42.90;40.20
22305;DHT22;18742;49.194;11.020;2022-07-04T13:45:08;42.70;39.70
22305;DHT22;18742;49.194;11.020;2022-07-04T13:47:34;43.50;38.20
22305;DHT22;18742;49.194;11.020;2022-07-04T13:49:59;44.10;38.60
22305;DHT22;18742;49.194;11.020;2022-07-04T13:52:25;43.80;37.60
22305;DHT22;18742;49.194;11.020;2022-07-04T13:54:51;42.20;38.50
22305;DHT22;18742;49.194;11.020;2022-07-04T13:57:16;41.30;39.50
22305;DHT22;18742;49.194;11.020;2022-07-04T13:59:42;41.50;39.50
22305;DHT22;18742;49.194;11.020;2022-07-04T14:02:08;42.30;39.90
22305;DHT22;18742;49.194;11.020;2022-07-04T14:04:34;41.30;39.80
22305;DHT22;18742;49.194;11.020;2022-07-04T14:06:59;39.40;41.20
22305;DHT22;18742;49.194;11.020;2022-07-04T14:09:26;38.30;42.90
22305;DHT22;18742;49.194;11.020;2022-07-04T14:11:51;37.70;43.20
22305;DHT22;18742;49.194;11.020;2022-07-04T14:14:17;38.70;42.70
22305;DHT22;18742;49.194;11.020;2022-07-04T14:16:42;38.10;42.30
22305;DHT22;18742;49.194;11.020;2022-07-04T14:19:08;36.30;43.30
22305;DHT22;18742;49.194;11.020;2022-07-04T14:21:33;34.80;45.70
22305;DHT22;18742;49.194;11.020;2022-07-04T14:23:59;34.30;47.10
22305;DHT22;18742;49.194;11.020;2022-07-04T14:26:24;35.50;46.00
22305;DHT22;18742;49.194;11.020;2022-07-04T14:28:50;36.70;44.70
22305;DHT22;18742;49.194;11.020;2022-07-04T14:31:16;36.60;44.10
22305;DHT22;18742;49.194;11.020;2022-07-04T14:33:42;37.60;43.50
22305;DHT22;18742;49.194;11.020;2022-07-04T14:36:08;39.10;42.90
22305;DHT22;18742;49.194;11.020;2022-07-04T14:38:34;39.80;40.60
22305;DHT22;18742;49.194;11.020;2022-07-04T14:40:59;39.90;40.00
22305;DHT22;18742;49.194;11.020;2022-07-04T14:43:42;39.50;40.50
22305;DHT22;18742;49.194;11.020;2022-07-04T14:46:08;39.50;40.80
22305;DHT22;18742;49.194;11.020;2022-07-04T14:48:34;40.00;39.80
22305;DHT22;18742;49.194;11.020;2022-07-04T14:51:00;39.10;40.30
22305;DHT22;18742;49.194;11.020;2022-07-04T14:53:26;39.20;41.00
22305;DHT22;18742;49.194;11.020;2022-07-04T14:55:52;39.10;40.60
22305;DHT22;18742;49.194;11.020;2022-07-04T14:58:18;39.40;40.20
22305;DHT22;18742;49.194;11.020;2022-07-04T15:00:44;40.50;40.50
22305;DHT22;18742;49.194;11.020;2022-07-04T15:03:10;41.60;39.00
22305;DHT22;18742;49.194;11.020;2022-07-04T15:05:35;41.70;38.20
22305;DHT22;18742;49.194;11.020;2022-07-04T15:08:01;42.40;37.50
22305;DHT22;18742;49.194;11.020;2022-07-04T15:10:27;42.30;36.90
22305;DHT22;18742;49.194;11.020;2022-07-04T15:12:52;41.80;37.60
22305;DHT22;18742;49.194;11.020;2022-07-04T15:15:18;40.00;38.60
22305;DHT22;18742;49.194;11.020;2022-07-04T15:17:46;38.50;40.10
22305;DHT22;18742;49.194;11.020;2022-07-04T15:20:11;37.70;41.40
22305;DHT22;18742;49.194;11.020;2022-07-04T15:22:56;36.70;42.30
22305;DHT22;18742;49.194;11.020;2022-07-04T15:25:40;36.90;42.00
22305;DHT22;18742;49.194;11.020;2022-07-04T15:28:06;36.30;43.10
22305;DHT22;18742;49.194;11.020;2022-07-04T15:30:31;35.80;43.60
22305;DHT22;18742;49.194;11.020;2022-07-04T15:32:57;35.20;44.00
22305;DHT22;18742;49.194;11.020;2022-07-04T15:35:23;34.60;45.10
22305;DHT22;18742;49.194;11.020;2022-07-04T15:37:48;34.30;44.60
22305;DHT22;18742;49.194;11.020;2022-07-04T15:40:14;34.40;44.10
22305;DHT22;18742;49.194;11.020;2022-07-04T15:42:39;34.10;44.20
22305;DHT22;18742;49.194;11.020;2022-07-04T15:45:05;33.40;44.40
22305;DHT22;18742;49.194;11.020;2022-07-04T15:47:31;33.30;45.40
22305;DHT22;18742;49.194;11.020;2022-07-04T15:49:57;32.70;46.00
22305;DHT22;18742;49.194;11.020;2022-07-04T15:52:22;32.30;46.50
22305;DHT22;18742;49.194;11.020;2022-07-04T15:54:49;31.80;47.00